sensor_id;sensor_type;location;lat;lon;timestamp;P1;durP1;ratioP1;P2;durP2;ratioP2
27758;SDS011;15148;48.972;12.794;2023-08-08T00:04:50;3.65;;;3.22;;
27758;SDS011;15148;48.972;12.794;2023-08-08T00:09:52;4.45;;;3.20;;
27758;SDS011;15148;48.972;12.794;2023-08-08T00:14:54;4.38;;;3.05;;
27758;SDS011;15148;48.972;12.794;2023-08-08T00:19:56;3.88;;;3.10;;
27758;SDS011;15148;48.972;12.794;2023-08-08T00:24:58;3.28;;;2.97;;
27758;SDS011;15148;48.972;12.794;2023-08-08T00:30:00;4.45;;;2.30;;
27758;SDS011;15148;48.972;12.794;2023-08-08T00:35:02;4.70;;;3.38;;
27758;SDS011;15148;48.972;12.794;2023-08-08T00:40:05;4.00;;;2.92;;
27758;SDS011;15148;48.972;12.794;2023-08-08T00:45:07;2.95;;;2.67;;
27758;SDS011;15148;48.972;12.794;2023-08-08T00:50:10;4.72;;;3.13;;
27758;SDS011;15148;48.972;12.794;2023-08-08T00:55:13;3.45;;;3.15;;
27758;SDS011;15148;48.972;12.794;2023-08-08T01:00:18;5.53;;;3.22;;
27758;SDS011;15148;48.972;12.794;2023-08-08T01:05:21;5.78;;;3.08;;
27758;SDS011;15148;48.972;12.794;2023-08-08T01:10:27;3.80;;;3.45;;
27758;SDS011;15148;48.972;12.794;2023-08-08T01:15:31;3.67;;;3.30;;
27758;SDS011;15148;48.972;12.794;2023-08-08T01:20:37;3.53;;;2.80;;
27758;SDS011;15148;48.972;12.794;2023-08-08T01:25:39;6.22;;;3.00;;
27758;SDS011;15148;48.972;12.794;2023-08-08T01:30:43;3.47;;;3.17;;
27758;SDS011;15148;48.972;12.794;2023-08-08T01:35:46;4.65;;;4.25;;
27758;SDS011;15148;48.972;12.794;2023-08-08T01:40:55;4.68;;;4.22;;
27758;SDS011;15148;48.972;12.794;2023-08-08T01:45:59;8.13;;;3.67;;
27758;SDS011;15148;48.972;12.794;2023-08-08T01:51:02;4.05;;;3.65;;
27758;SDS011;15148;48.972;12.794;2023-08-08T01:56:04;5.43;;;3.13;;
27758;SDS011;15148;48.972;12.794;2023-08-08T02:01:06;5.75;;;3.50;;
27758;SDS011;15148;48.972;12.794;2023-08-08T02:06:08;5.28;;;3.00;;
27758;SDS011;15148;48.972;12.794;2023-08-08T02:11:10;5.35;;;2.60;;
27758;SDS011;15148;48.972;12.794;2023-08-08T02:16:11;3.15;;;2.85;;
27758;SDS011;15148;48.972;12.794;2023-08-08T02:21:14;3.22;;;2.92;;
27758;SDS011;15148;48.972;12.794;2023-08-08T02:26:16;4.15;;;3.20;;
27758;SDS011;15148;48.972;12.794;2023-08-08T02:31:18;3.70;;;2.90;;
27758;SDS011;15148;48.972;12.794;2023-08-08T02:36:22;3.78;;;3.33;;
27758;SDS011;15148;48.972;12.794;2023-08-08T02:41:24;5.93;;;2.83;;
27758;SDS011;15148;48.972;12.794;2023-08-08T02:46:26;5.30;;;3.40;;
27758;SDS011;15148;48.972;12.794;2023-08-08T02:51:28;3.40;;;3.15;;
27758;SDS011;15148;48.972;12.794;2023-08-08T02:56:30;3.97;;;2.95;;
27758;SDS011;15148;48.972;12.794;2023-08-08T03:01:32;5.32;;;3.10;;
27758;SDS011;15148;48.972;12.794;2023-08-08T03:06:36;3.08;;;2.78;;
27758;SDS011;15148;48.972;12.794;2023-08-08T03:11:39;3.17;;;2.88;;
27758;SDS011;15148;48.972;12.794;2023-08-08T03:16:47;3.45;;;3.15;;
27758;SDS011;15148;48.972;12.794;2023-08-08T03:21:49;3.20;;;2.90;;
27758;SDS011;15148;48.972;12.794;2023-08-08T03:26:51;5.68;;;3.10;;
27758;SDS011;15148;48.972;12.794;2023-08-08T03:31:53;5.15;;;2.90;;
27758;SDS011;15148;48.972;12.794;2023-08-08T03:36:56;4.05;;;2.50;;
27758;SDS011;15148;48.972;12.794;2023-08-08T03:41:58;3.00;;;2.80;;
27758;SDS011;15148;48.972;12.794;2023-08-08T03:47:01;4.65;;;2.63;;
27758;SDS011;15148;48.972;12.794;2023-08-08T03:52:20;4.53;;;2.83;;
27758;SDS011;15148;48.972;12.794;2023-08-08T03:57:22;6.63;;;3.28;;
27758;SDS011;15148;48.972;12.794;2023-08-08T04:02:25;4.50;;;2.80;;
27758;SDS011;15148;48.972;12.794;2023-08-08T04:07:27;3.67;;;3.03;;
27758;SDS011;15148;48.972;12.794;2023-08-08T04:12:29;4.70;;;2.85;;
27758;SDS011;15148;48.972;12.794;2023-08-08T04:17:31;2.58;;;2.38;;
27758;SDS011;15148;48.972;12.794;2023-08-08T04:22:33;2.80;;;2.47;;
27758;SDS011;15148;48.972;12.794;2023-08-08T04:27:34;4.80;;;2.55;;
27758;SDS011;15148;48.972;12.794;2023-08-08T04:32:36;3.78;;;2.97;;
27758;SDS011;15148;48.972;12.794;2023-08-08T04:37:38;3.22;;;2.92;;
27758;SDS011;15148;48.972;12.794;2023-08-08T04:42:40;2.60;;;2.40;;
27758;SDS011;15148;48.972;12.794;2023-08-08T04:47:42;2.95;;;2.60;;
27758;SDS011;15148;48.972;12.794;2023-08-08T04:52:44;4.28;;;2.75;;
27758;SDS011;15148;48.972;12.794;2023-08-08T04:57:46;3.40;;;2.50;;
27758;SDS011;15148;48.972;12.794;2023-08-08T05:02:48;5.50;;;3.03;;
27758;SDS011;15148;48.972;12.794;2023-08-08T05:07:50;4.65;;;2.92;;
27758;SDS011;15148;48.972;12.794;2023-08-08T05:12:52;10.88;;;3.13;;
27758;SDS011;15148;48.972;12.794;2023-08-08T05:17:54;5.63;;;3.05;;
27758;SDS011;15148;48.972;12.794;2023-08-08T05:22:56;5.10;;;2.42;;
27758;SDS011;15148;48.972;12.794;2023-08-08T05:27:58;3.20;;;2.90;;
27758;SDS011;15148;48.972;12.794;2023-08-08T05:33:00;2.40;;;2.30;;
27758;SDS011;15148;48.972;12.794;2023-08-08T05:38:02;4.97;;;2.97;;
27758;SDS011;15148;48.972;12.794;2023-08-08T05:43:04;2.80;;;2.60;;
27758;SDS011;15148;48.972;12.794;2023-08-08T05:48:06;4.47;;;2.95;;
27758;SDS011;15148;48.972;12.794;2023-08-08T05:53:11;6.95;;;2.70;;
27758;SDS011;15148;48.972;12.794;2023-08-08T05:58:13;2.60;;;2.40;;
27758;SDS011;15148;48.972;12.794;2023-08-08T06:03:15;2.90;;;2.70;;
27758;SDS011;15148;48.972;12.794;2023-08-08T06:08:17;3.33;;;2.63;;
27758;SDS011;15148;48.972;12.794;2023-08-08T06:13:19;3.28;;;3.00;;
27758;SDS011;15148;48.972;12.794;2023-08-08T06:18:20;5.88;;;3.10;;
27758;SDS011;15148;48.972;12.794;2023-08-08T06:23:22;5.40;;;4.57;;
27758;SDS011;15148;48.972;12.794;2023-08-08T06:28:24;4.30;;;2.80;;
27758;SDS011;15148;48.972;12.794;2023-08-08T06:33:26;3.40;;;2.78;;
27758;SDS011;15148;48.972;12.794;2023-08-08T06:38:28;3.60;;;3.30;;
27758;SDS011;15148;48.972;12.794;2023-08-08T06:43:31;4.47;;;3.50;;
27758;SDS011;15148;48.972;12.794;2023-08-08T06:48:34;5.80;;;2.92;;
27758;SDS011;15148;48.972;12.794;2023-08-08T06:53:36;4.10;;;3.40;;
27758;SDS011;15148;48.972;12.794;2023-08-08T06:58:38;3.95;;;3.00;;
27758;SDS011;15148;48.972;12.794;2023-08-08T07:03:40;4.90;;;4.07;;
27758;SDS011;15148;48.972;12.794;2023-08-08T07:08:42;4.07;;;2.95;;
27758;SDS011;15148;48.972;12.794;2023-08-08T07:13:43;3.67;;;3.00;;
27758;SDS011;15148;48.972;12.794;2023-08-08T07:18:45;4.60;;;2.80;;
27758;SDS011;15148;48.972;12.794;2023-08-08T07:23:49;4.47;;;3.75;;
27758;SDS011;15148;48.972;12.794;2023-08-08T07:28:52;2.92;;;2.72;;
27758;SDS011;15148;48.972;12.794;2023-08-08T07:33:54;3.90;;;2.50;;
27758;SDS011;15148;48.972;12.794;2023-08-08T07:38:55;5.22;;;2.67;;
27758;SDS011;15148;48.972;12.794;2023-08-08T07:44:00;4.53;;;2.53;;
27758;SDS011;15148;48.972;12.794;2023-08-08T07:49:02;3.80;;;2.90;;
27758;SDS011;15148;48.972;12.794;2023-08-08T07:54:06;3.13;;;2.50;;
27758;SDS011;15148;48.972;12.794;2023-08-08T07:59:09;5.18;;;2.70;;
27758;SDS011;15148;48.972;12.794;2023-08-08T08:04:11;2.50;;;2.28;;
27758;SDS011;15148;48.972;12.794;2023-08-08T08:09:13;3.53;;;1.90;;
27758;SDS011;15148;48.972;12.794;2023-08-08T08:14:15;4.00;;;2.95;;
27758;SDS011;15148;48.972;12.794;2023-08-08T08:19:17;2.95;;;2.20;;
27758;SDS011;15148;48.972;12.794;2023-08-08T08:24:19;2.63;;;2.20;;
27758;SDS011;15148;48.972;12.794;2023-08-08T08:29:21;5.85;;;2.70;;
27758;SDS011;15148;48.972;12.794;2023-08-08T08:34:23;3.63;;;2.80;;
27758;SDS011;15148;48.972;12.794;2023-08-08T08:39:25;2.50;;;2.30;;
27758;SDS011;15148;48.972;12.794;2023-08-08T08:44:27;3.22;;;2.70;;
27758;SDS011;15148;48.972;12.794;2023-08-08T08:49:33;3.72;;;2.63;;
27758;SDS011;15148;48.972;12.794;2023-08-08T08:54:37;4.70;;;2.20;;
27758;SDS011;15148;48.972;12.794;2023-08-08T08:59:39;4.47;;;1.80;;
27758;SDS011;15148;48.972;12.794;2023-08-08T09:04:41;3.15;;;2.10;;
27758;SDS011;15148;48.972;12.794;2023-08-08T09:09:44;4.53;;;2.67;;
27758;SDS011;15148;48.972;12.794;2023-08-08T09:14:46;2.83;;;2.10;;
27758;SDS011;15148;48.972;12.794;2023-08-08T09:19:52;2.42;;;2.00;;
27758;SDS011;15148;48.972;12.794;2023-08-08T09:24:55;5.53;;;2.20;;
27758;SDS011;15148;48.972;12.794;2023-08-08T09:29:57;6.25;;;2.30;;
27758;SDS011;15148;48.972;12.794;2023-08-08T09:34:59;3.28;;;1.98;;
27758;SDS011;15148;48.972;12.794;2023-08-08T09:40:02;2.90;;;1.85;;
27758;SDS011;15148;48.972;12.794;2023-08-08T09:45:07;2.38;;;1.77;;
27758;SDS011;15148;48.972;12.794;2023-08-08T09:50:10;3.42;;;2.67;;
27758;SDS011;15148;48.972;12.794;2023-08-08T09:55:12;3.28;;;2.28;;
27758;SDS011;15148;48.972;12.794;2023-08-08T10:00:16;4.90;;;2.00;;
27758;SDS011;15148;48.972;12.794;2023-08-08T10:05:18;3.10;;;1.90;;
27758;SDS011;15148;48.972;12.794;2023-08-08T10:10:20;2.35;;;1.88;;
27758;SDS011;15148;48.972;12.794;2023-08-08T10:15:26;2.03;;;1.75;;
27758;SDS011;15148;48.972;12.794;2023-08-08T10:20:30;1.90;;;1.70;;
27758;SDS011;15148;48.972;12.794;2023-08-08T10:25:35;3.15;;;1.88;;
27758;SDS011;15148;48.972;12.794;2023-08-08T10:30:41;2.53;;;1.92;;
27758;SDS011;15148;48.972;12.794;2023-08-08T10:41:02;2.83;;;1.90;;
27758;SDS011;15148;48.972;12.794;2023-08-08T10:46:04;4.18;;;1.90;;
27758;SDS011;15148;48.972;12.794;2023-08-08T10:51:16;2.13;;;1.67;;
27758;SDS011;15148;48.972;12.794;2023-08-08T10:56:18;2.92;;;1.73;;
27758;SDS011;15148;48.972;12.794;2023-08-08T11:01:24;2.05;;;1.73;;
27758;SDS011;15148;48.972;12.794;2023-08-08T11:06:26;1.85;;;1.65;;
27758;SDS011;15148;48.972;12.794;2023-08-08T11:11:29;2.42;;;1.83;;
27758;SDS011;15148;48.972;12.794;2023-08-08T11:16:44;2.10;;;1.90;;
27758;SDS011;15148;48.972;12.794;2023-08-08T11:21:47;1.80;;;1.70;;
27758;SDS011;15148;48.972;12.794;2023-08-08T11:26:50;4.15;;;1.50;;
27758;SDS011;15148;48.972;12.794;2023-08-08T11:32:00;1.52;;;1.40;;
27758;SDS011;15148;48.972;12.794;2023-08-08T11:37:07;2.15;;;1.92;;
27758;SDS011;15148;48.972;12.794;2023-08-08T11:42:10;1.95;;;1.80;;
27758;SDS011;15148;48.972;12.794;2023-08-08T11:47:13;1.70;;;1.60;;
27758;SDS011;15148;48.972;12.794;2023-08-08T11:52:15;2.17;;;1.75;;
27758;SDS011;15148;48.972;12.794;2023-08-08T11:57:19;2.95;;;2.00;;
27758;SDS011;15148;48.972;12.794;2023-08-08T12:02:22;2.72;;;1.77;;
27758;SDS011;15148;48.972;12.794;2023-08-08T12:07:25;3.90;;;1.98;;
27758;SDS011;15148;48.972;12.794;2023-08-08T12:12:27;3.55;;;1.77;;
27758;SDS011;15148;48.972;12.794;2023-08-08T12:17:30;2.85;;;2.05;;
27758;SDS011;15148;48.972;12.794;2023-08-08T12:22:32;2.85;;;1.90;;
27758;SDS011;15148;48.972;12.794;2023-08-08T12:27:34;2.05;;;1.85;;
27758;SDS011;15148;48.972;12.794;2023-08-08T12:32:36;2.25;;;1.67;;
27758;SDS011;15148;48.972;12.794;2023-08-08T12:37:39;4.32;;;2.05;;
27758;SDS011;15148;48.972;12.794;2023-08-08T12:42:41;2.13;;;1.92;;
27758;SDS011;15148;48.972;12.794;2023-08-08T12:47:43;3.30;;;2.10;;
27758;SDS011;15148;48.972;12.794;2023-08-08T12:52:45;4.43;;;1.85;;
27758;SDS011;15148;48.972;12.794;2023-08-08T12:57:47;2.80;;;1.85;;
27758;SDS011;15148;48.972;12.794;2023-08-08T13:02:49;2.00;;;1.83;;
27758;SDS011;15148;48.972;12.794;2023-08-08T13:07:51;3.20;;;2.42;;
27758;SDS011;15148;48.972;12.794;2023-08-08T13:12:53;3.80;;;2.00;;
27758;SDS011;15148;48.972;12.794;2023-08-08T13:17:56;4.30;;;1.92;;
27758;SDS011;15148;48.972;12.794;2023-08-08T13:22:58;3.30;;;2.50;;
27758;SDS011;15148;48.972;12.794;2023-08-08T13:28:01;5.57;;;2.10;;
27758;SDS011;15148;48.972;12.794;2023-08-08T13:33:04;5.68;;;2.30;;
27758;SDS011;15148;48.972;12.794;2023-08-08T13:38:06;4.38;;;2.33;;
27758;SDS011;15148;48.972;12.794;2023-08-08T13:43:09;3.75;;;2.10;;
27758;SDS011;15148;48.972;12.794;2023-08-08T13:48:11;2.88;;;1.80;;
27758;SDS011;15148;48.972;12.794;2023-08-08T13:53:13;2.70;;;1.70;;
27758;SDS011;15148;48.972;12.794;2023-08-08T13:58:15;5.85;;;2.00;;
27758;SDS011;15148;48.972;12.794;2023-08-08T14:03:17;2.33;;;1.58;;
27758;SDS011;15148;48.972;12.794;2023-08-08T14:08:20;2.38;;;2.10;;
27758;SDS011;15148;48.972;12.794;2023-08-08T14:13:22;3.15;;;2.00;;
27758;SDS011;15148;48.972;12.794;2023-08-08T14:18:24;2.10;;;1.80;;
27758;SDS011;15148;48.972;12.794;2023-08-08T14:23:26;3.97;;;2.08;;
27758;SDS011;15148;48.972;12.794;2023-08-08T14:28:27;2.35;;;2.15;;
27758;SDS011;15148;48.972;12.794;2023-08-08T14:33:29;2.20;;;2.00;;
27758;SDS011;15148;48.972;12.794;2023-08-08T14:38:34;6.15;;;2.67;;
27758;SDS011;15148;48.972;12.794;2023-08-08T14:43:37;2.13;;;1.67;;
27758;SDS011;15148;48.972;12.794;2023-08-08T14:48:39;2.17;;;1.75;;
27758;SDS011;15148;48.972;12.794;2023-08-08T14:53:41;3.05;;;1.60;;
27758;SDS011;15148;48.972;12.794;2023-08-08T14:58:43;2.75;;;1.73;;
27758;SDS011;15148;48.972;12.794;2023-08-08T15:03:44;3.10;;;1.80;;
27758;SDS011;15148;48.972;12.794;2023-08-08T15:08:46;2.63;;;1.73;;
27758;SDS011;15148;48.972;12.794;2023-08-08T15:13:51;5.03;;;1.90;;
27758;SDS011;15148;48.972;12.794;2023-08-08T15:18:53;2.10;;;1.70;;
27758;SDS011;15148;48.972;12.794;2023-08-08T15:23:54;2.97;;;1.95;;
27758;SDS011;15148;48.972;12.794;2023-08-08T15:28:56;4.10;;;1.80;;
27758;SDS011;15148;48.972;12.794;2023-08-08T15:33:58;2.30;;;1.58;;
27758;SDS011;15148;48.972;12.794;2023-08-08T15:39:01;4.03;;;2.05;;
27758;SDS011;15148;48.972;12.794;2023-08-08T15:44:03;3.20;;;2.20;;
27758;SDS011;15148;48.972;12.794;2023-08-08T15:49:05;3.60;;;2.05;;
27758;SDS011;15148;48.972;12.794;2023-08-08T15:54:08;2.90;;;2.00;;
27758;SDS011;15148;48.972;12.794;2023-08-08T15:59:10;2.97;;;1.88;;
27758;SDS011;15148;48.972;12.794;2023-08-08T16:04:12;4.68;;;2.20;;
27758;SDS011;15148;48.972;12.794;2023-08-08T16:09:16;3.33;;;1.80;;
27758;SDS011;15148;48.972;12.794;2023-08-08T16:14:18;4.78;;;1.92;;
27758;SDS011;15148;48.972;12.794;2023-08-08T16:19:21;2.67;;;1.95;;
27758;SDS011;15148;48.972;12.794;2023-08-08T16:24:26;2.85;;;1.92;;
27758;SDS011;15148;48.972;12.794;2023-08-08T16:29:27;1.92;;;1.73;;
27758;SDS011;15148;48.972;12.794;2023-08-08T16:34:29;2.70;;;1.90;;
27758;SDS011;15148;48.972;12.794;2023-08-08T16:39:32;2.60;;;1.55;;
27758;SDS011;15148;48.972;12.794;2023-08-08T16:44:34;2.45;;;1.58;;
27758;SDS011;15148;48.972;12.794;2023-08-08T16:49:37;3.35;;;1.92;;
27758;SDS011;15148;48.972;12.794;2023-08-08T16:54:39;3.03;;;1.80;;
27758;SDS011;15148;48.972;12.794;2023-08-08T16:59:41;4.53;;;1.88;;
27758;SDS011;15148;48.972;12.794;2023-08-08T17:04:43;4.32;;;2.05;;
27758;SDS011;15148;48.972;12.794;2023-08-08T17:09:45;2.28;;;2.03;;
27758;SDS011;15148;48.972;12.794;2023-08-08T17:14:47;3.72;;;2.08;;
27758;SDS011;15148;48.972;12.794;2023-08-08T17:19:49;1.98;;;1.80;;
27758;SDS011;15148;48.972;12.794;2023-08-08T17:24:51;5.32;;;2.10;;
27758;SDS011;15148;48.972;12.794;2023-08-08T17:29:53;2.72;;;2.05;;
27758;SDS011;15148;48.972;12.794;2023-08-08T17:34:55;3.10;;;1.85;;
27758;SDS011;15148;48.972;12.794;2023-08-08T17:39:57;5.05;;;1.77;;
27758;SDS011;15148;48.972;12.794;2023-08-08T17:44:59;2.15;;;1.55;;
27758;SDS011;15148;48.972;12.794;2023-08-08T17:50:01;1.75;;;1.65;;
27758;SDS011;15148;48.972;12.794;2023-08-08T17:55:03;3.40;;;2.20;;
27758;SDS011;15148;48.972;12.794;2023-08-08T18:00:07;1.70;;;1.60;;
27758;SDS011;15148;48.972;12.794;2023-08-08T18:05:09;2.22;;;1.50;;
27758;SDS011;15148;48.972;12.794;2023-08-08T18:10:11;1.75;;;1.52;;
27758;SDS011;15148;48.972;12.794;2023-08-08T18:15:13;2.78;;;1.92;;
27758;SDS011;15148;48.972;12.794;2023-08-08T18:20:15;4.05;;;2.00;;
27758;SDS011;15148;48.972;12.794;2023-08-08T18:25:17;2.45;;;1.70;;
27758;SDS011;15148;48.972;12.794;2023-08-08T18:30:20;6.05;;;1.70;;
27758;SDS011;15148;48.972;12.794;2023-08-08T18:35:22;2.10;;;1.70;;
27758;SDS011;15148;48.972;12.794;2023-08-08T18:40:24;3.80;;;1.73;;
27758;SDS011;15148;48.972;12.794;2023-08-08T18:45:26;1.60;;;1.50;;
27758;SDS011;15148;48.972;12.794;2023-08-08T18:50:28;2.70;;;2.10;;
27758;SDS011;15148;48.972;12.794;2023-08-08T18:55:30;5.75;;;1.70;;
27758;SDS011;15148;48.972;12.794;2023-08-08T19:00:32;2.08;;;1.85;;
27758;SDS011;15148;48.972;12.794;2023-08-08T19:05:34;3.83;;;1.88;;
27758;SDS011;15148;48.972;12.794;2023-08-08T19:10:36;2.65;;;1.60;;
27758;SDS011;15148;48.972;12.794;2023-08-08T19:15:38;4.97;;;1.60;;
27758;SDS011;15148;48.972;12.794;2023-08-08T19:20:40;3.38;;;1.67;;
27758;SDS011;15148;48.972;12.794;2023-08-08T19:25:43;1.77;;;1.58;;
27758;SDS011;15148;48.972;12.794;2023-08-08T19:30:45;2.50;;;1.77;;
27758;SDS011;15148;48.972;12.794;2023-08-08T19:35:47;1.95;;;1.75;;
27758;SDS011;15148;48.972;12.794;2023-08-08T19:40:49;5.65;;;1.70;;
27758;SDS011;15148;48.972;12.794;2023-08-08T19:45:51;2.40;;;1.52;;
27758;SDS011;15148;48.972;12.794;2023-08-08T19:50:54;2.55;;;1.80;;
27758;SDS011;15148;48.972;12.794;2023-08-08T19:55:56;2.08;;;1.40;;
27758;SDS011;15148;48.972;12.794;2023-08-08T20:01:00;2.90;;;1.65;;
27758;SDS011;15148;48.972;12.794;2023-08-08T20:06:02;4.68;;;1.77;;
27758;SDS011;15148;48.972;12.794;2023-08-08T20:11:04;3.45;;;1.80;;
27758;SDS011;15148;48.972;12.794;2023-08-08T20:16:07;2.92;;;2.03;;
27758;SDS011;15148;48.972;12.794;2023-08-08T20:21:09;7.47;;;3.15;;
27758;SDS011;15148;48.972;12.794;2023-08-08T20:26:11;2.30;;;1.75;;
27758;SDS011;15148;48.972;12.794;2023-08-08T20:31:13;3.75;;;1.80;;
27758;SDS011;15148;48.972;12.794;2023-08-08T20:36:15;4.25;;;1.88;;
27758;SDS011;15148;48.972;12.794;2023-08-08T20:41:17;1.63;;;1.40;;
27758;SDS011;15148;48.972;12.794;2023-08-08T20:46:19;1.95;;;1.75;;
27758;SDS011;15148;48.972;12.794;2023-08-08T20:51:22;2.25;;;1.90;;
27758;SDS011;15148;48.972;12.794;2023-08-08T20:56:23;2.13;;;1.73;;
27758;SDS011;15148;48.972;12.794;2023-08-08T21:01:25;3.33;;;1.92;;
27758;SDS011;15148;48.972;12.794;2023-08-08T21:06:27;2.85;;;1.60;;
27758;SDS011;15148;48.972;12.794;2023-08-08T21:11:29;5.30;;;2.03;;
27758;SDS011;15148;48.972;12.794;2023-08-08T21:16:31;4.88;;;1.77;;
27758;SDS011;15148;48.972;12.794;2023-08-08T21:21:33;2.30;;;1.90;;
27758;SDS011;15148;48.972;12.794;2023-08-08T21:26:35;4.68;;;1.70;;
27758;SDS011;15148;48.972;12.794;2023-08-08T21:31:40;5.88;;;2.00;;
27758;SDS011;15148;48.972;12.794;2023-08-08T21:36:42;4.85;;;2.22;;
27758;SDS011;15148;48.972;12.794;2023-08-08T21:41:44;3.13;;;1.80;;
27758;SDS011;15148;48.972;12.794;2023-08-08T21:46:46;3.13;;;2.10;;
27758;SDS011;15148;48.972;12.794;2023-08-08T21:51:48;5.65;;;1.90;;
27758;SDS011;15148;48.972;12.794;2023-08-08T21:56:50;2.97;;;1.70;;
27758;SDS011;15148;48.972;12.794;2023-08-08T22:01:52;1.80;;;1.60;;
27758;SDS011;15148;48.972;12.794;2023-08-08T22:06:54;1.70;;;1.60;;
27758;SDS011;15148;48.972;12.794;2023-08-08T22:11:56;6.18;;;1.80;;
27758;SDS011;15148;48.972;12.794;2023-08-08T22:16:58;5.40;;;2.35;;
27758;SDS011;15148;48.972;12.794;2023-08-08T22:22:00;1.95;;;1.77;;
27758;SDS011;15148;48.972;12.794;2023-08-08T22:27:03;1.80;;;1.52;;
27758;SDS011;15148;48.972;12.794;2023-08-08T22:32:05;2.83;;;1.90;;
27758;SDS011;15148;48.972;12.794;2023-08-08T22:37:07;7.05;;;1.90;;
27758;SDS011;15148;48.972;12.794;2023-08-08T22:42:08;3.05;;;2.00;;
27758;SDS011;15148;48.972;12.794;2023-08-08T22:47:10;2.95;;;1.50;;
27758;SDS011;15148;48.972;12.794;2023-08-08T22:52:12;3.35;;;1.73;;
27758;SDS011;15148;48.972;12.794;2023-08-08T22:57:14;4.10;;;2.20;;
27758;SDS011;15148;48.972;12.794;2023-08-08T23:02:17;2.80;;;1.80;;
27758;SDS011;15148;48.972;12.794;2023-08-08T23:07:18;3.63;;;1.88;;
27758;SDS011;15148;48.972;12.794;2023-08-08T23:12:20;5.40;;;2.40;;
27758;SDS011;15148;48.972;12.794;2023-08-08T23:17:22;2.65;;;1.73;;
27758;SDS011;15148;48.972;12.794;2023-08-08T23:22:24;4.88;;;2.15;;
27758;SDS011;15148;48.972;12.794;2023-08-08T23:27:26;2.78;;;1.83;;
27758;SDS011;15148;48.972;12.794;2023-08-08T23:32:28;2.00;;;1.80;;
27758;SDS011;15148;48.972;12.794;2023-08-08T23:37:30;1.90;;;1.70;;
27758;SDS011;15148;48.972;12.794;2023-08-08T23:42:31;3.00;;;1.65;;
27758;SDS011;15148;48.972;12.794;2023-08-08T23:47:34;2.25;;;1.90;;
27758;SDS011;15148;48.972;12.794;2023-08-08T23:52:36;2.40;;;1.80;;
27758;SDS011;15148;48.972;12.794;2023-08-08T23:57:37;2.85;;;2.00;;
